Portada
METAR-TAF:

METAR-TAF

Aeroports :

Birmingham, Anglaterra

latitud: 52-27N, longitud: 001-44W, altitud: 99 m

Observació

L'informe es va fer fa 18 minuts, a les 22:20 UTC
Vent 7 kt del Oest, variant entre Oest/Sud-Oest i Oest/Nord-Oest
Temperatura 9°C
Humitat 81%
Pressió 1007 hPa
Visibilitat 10 km o més
Cel cobert a una alçada de 3800 ft

METAR: EGBB 062220Z 26007KT 240V300 9999 OVC038 09/06 Q1007

Hora: 22:38 (22:38 UTC)

Pronòstic

L'informe es va fer fa 5 hores i 39 minuts, a les 16:59 UTC
Pronòstic vàlid del 06 a les 18 UTC al 07 a les 18 UTC
Vent 10 kt del Oest
Visibilitat 10 km o més
Núvols disperses a una alçada de 2000 ft
Evolucionant progressivament
l' 07 a les 15 UTC al 07 a les 18 UTC
Vent 8 kt del Sud/Sud-Oest

TAF: EGBB 061659Z 0618/0718 27010KT 9999 SCT020 BECMG 0715/0718 21008KT

Observacions i pronòstics meteorològics de més de 4000 aeroports (METAR i TAF).

Les estacions disponibles són els punts grocs i vermells al mapa.

Posi el ratolí al punt desitjat per veure el nom de l'estació.

Feu clic per veure les observacions i els pronòstics meteorològics.

Per canviar el mapa: feu clic els botons verds amb una creu de color negre per apropar; al botó verd amb un guió per allunyar la imatge; o en les fletxes verdes per a mapes adjacents.


METAR-TAF: